sensor_id;sensor_type;location;lat;lon;timestamp;P1;durP1;ratioP1;P2;durP2;ratioP2
19436;SDS011;9854;50.968;4.168;2022-09-06T00:02:21;5.32;;;4.30;;
19436;SDS011;9854;50.968;4.168;2022-09-06T00:04:46;5.95;;;4.30;;
19436;SDS011;9854;50.968;4.168;2022-09-06T00:07:13;8.23;;;4.40;;
19436;SDS011;9854;50.968;4.168;2022-09-06T00:09:38;9.98;;;5.13;;
19436;SDS011;9854;50.968;4.168;2022-09-06T00:12:04;6.95;;;4.90;;
19436;SDS011;9854;50.968;4.168;2022-09-06T00:14:30;5.30;;;3.97;;
19436;SDS011;9854;50.968;4.168;2022-09-06T00:16:56;4.72;;;4.22;;
19436;SDS011;9854;50.968;4.168;2022-09-06T00:19:21;6.53;;;4.90;;
19436;SDS011;9854;50.968;4.168;2022-09-06T00:21:47;8.77;;;4.32;;
19436;SDS011;9854;50.968;4.168;2022-09-06T00:24:12;5.78;;;4.68;;
19436;SDS011;9854;50.968;4.168;2022-09-06T00:26:38;5.38;;;4.53;;
19436;SDS011;9854;50.968;4.168;2022-09-06T00:29:04;7.05;;;4.82;;
19436;SDS011;9854;50.968;4.168;2022-09-06T00:31:29;7.75;;;5.38;;
19436;SDS011;9854;50.968;4.168;2022-09-06T00:33:56;5.30;;;4.80;;
19436;SDS011;9854;50.968;4.168;2022-09-06T00:36:22;7.28;;;5.18;;
19436;SDS011;9854;50.968;4.168;2022-09-06T00:38:48;6.85;;;5.05;;
19436;SDS011;9854;50.968;4.168;2022-09-06T00:41:14;5.97;;;5.47;;
19436;SDS011;9854;50.968;4.168;2022-09-06T00:43:40;8.18;;;5.35;;
19436;SDS011;9854;50.968;4.168;2022-09-06T00:46:06;5.75;;;5.22;;
19436;SDS011;9854;50.968;4.168;2022-09-06T00:48:34;9.93;;;5.47;;
19436;SDS011;9854;50.968;4.168;2022-09-06T00:51:03;7.00;;;5.53;;
19436;SDS011;9854;50.968;4.168;2022-09-06T00:53:32;7.18;;;5.85;;
19436;SDS011;9854;50.968;4.168;2022-09-06T00:55:58;7.80;;;6.43;;
19436;SDS011;9854;50.968;4.168;2022-09-06T00:58:24;11.63;;;6.32;;
19436;SDS011;9854;50.968;4.168;2022-09-06T01:00:50;9.38;;;6.28;;
19436;SDS011;9854;50.968;4.168;2022-09-06T01:03:16;7.35;;;6.25;;
19436;SDS011;9854;50.968;4.168;2022-09-06T01:17:32;8.38;;;6.40;;
19436;SDS011;9854;50.968;4.168;2022-09-06T01:27:59;7.03;;;6.43;;
19436;SDS011;9854;50.968;4.168;2022-09-06T01:30:40;6.72;;;5.85;;
19436;SDS011;9854;50.968;4.168;2022-09-06T01:33:14;6.90;;;6.30;;
19436;SDS011;9854;50.968;4.168;2022-09-06T01:35:50;10.85;;;6.55;;
19436;SDS011;9854;50.968;4.168;2022-09-06T01:38:21;9.18;;;5.97;;
19436;SDS011;9854;50.968;4.168;2022-09-06T01:40:47;9.32;;;5.95;;
19436;SDS011;9854;50.968;4.168;2022-09-06T01:43:14;10.25;;;7.25;;
19436;SDS011;9854;50.968;4.168;2022-09-06T01:53:58;9.65;;;7.13;;
19436;SDS011;9854;50.968;4.168;2022-09-06T01:56:53;6.93;;;5.70;;
19436;SDS011;9854;50.968;4.168;2022-09-06T02:05:33;10.50;;;6.28;;
19436;SDS011;9854;50.968;4.168;2022-09-06T02:08:10;7.85;;;5.65;;
19436;SDS011;9854;50.968;4.168;2022-09-06T02:10:41;8.93;;;6.22;;
19436;SDS011;9854;50.968;4.168;2022-09-06T02:13:12;6.00;;;5.50;;
19436;SDS011;9854;50.968;4.168;2022-09-06T02:15:44;7.95;;;6.70;;
19436;SDS011;9854;50.968;4.168;2022-09-06T02:18:16;7.35;;;6.15;;
19436;SDS011;9854;50.968;4.168;2022-09-06T02:20:46;6.63;;;6.00;;
19436;SDS011;9854;50.968;4.168;2022-09-06T02:23:15;11.27;;;5.70;;
19436;SDS011;9854;50.968;4.168;2022-09-06T02:25:47;7.60;;;5.32;;
19436;SDS011;9854;50.968;4.168;2022-09-06T02:28:17;7.28;;;5.85;;
19436;SDS011;9854;50.968;4.168;2022-09-06T02:30:44;15.93;;;6.28;;
19436;SDS011;9854;50.968;4.168;2022-09-06T02:33:15;8.20;;;6.35;;
19436;SDS011;9854;50.968;4.168;2022-09-06T02:35:43;9.50;;;6.28;;
19436;SDS011;9854;50.968;4.168;2022-09-06T02:38:12;7.97;;;5.90;;
19436;SDS011;9854;50.968;4.168;2022-09-06T02:40:38;10.18;;;5.75;;
19436;SDS011;9854;50.968;4.168;2022-09-06T02:43:05;6.47;;;5.97;;
19436;SDS011;9854;50.968;4.168;2022-09-06T02:45:30;10.05;;;6.18;;
19436;SDS011;9854;50.968;4.168;2022-09-06T02:47:56;8.30;;;6.13;;
19436;SDS011;9854;50.968;4.168;2022-09-06T02:50:22;8.07;;;6.30;;
19436;SDS011;9854;50.968;4.168;2022-09-06T02:52:59;7.78;;;6.55;;
19436;SDS011;9854;50.968;4.168;2022-09-06T02:55:29;9.40;;;7.45;;
19436;SDS011;9854;50.968;4.168;2022-09-06T02:57:54;7.45;;;6.75;;
19436;SDS011;9854;50.968;4.168;2022-09-06T03:00:20;12.27;;;10.77;;
19436;SDS011;9854;50.968;4.168;2022-09-06T03:02:46;13.52;;;7.88;;
19436;SDS011;9854;50.968;4.168;2022-09-06T03:05:12;10.13;;;7.93;;
19436;SDS011;9854;50.968;4.168;2022-09-06T03:07:38;7.32;;;6.65;;
19436;SDS011;9854;50.968;4.168;2022-09-06T03:10:03;11.38;;;7.30;;
19436;SDS011;9854;50.968;4.168;2022-09-06T03:12:29;9.38;;;7.22;;
19436;SDS011;9854;50.968;4.168;2022-09-06T03:14:55;9.63;;;6.65;;
19436;SDS011;9854;50.968;4.168;2022-09-06T03:17:21;6.95;;;6.32;;
19436;SDS011;9854;50.968;4.168;2022-09-06T03:19:47;6.55;;;5.88;;
19436;SDS011;9854;50.968;4.168;2022-09-06T03:22:13;5.97;;;5.57;;
19436;SDS011;9854;50.968;4.168;2022-09-06T03:24:39;6.13;;;5.65;;
19436;SDS011;9854;50.968;4.168;2022-09-06T03:27:04;6.50;;;6.00;;
19436;SDS011;9854;50.968;4.168;2022-09-06T03:29:30;6.68;;;6.07;;
19436;SDS011;9854;50.968;4.168;2022-09-06T03:31:56;8.45;;;6.63;;
19436;SDS011;9854;50.968;4.168;2022-09-06T03:34:22;7.30;;;6.60;;
19436;SDS011;9854;50.968;4.168;2022-09-06T03:36:47;7.28;;;5.80;;
19436;SDS011;9854;50.968;4.168;2022-09-06T03:39:13;6.82;;;5.72;;
19436;SDS011;9854;50.968;4.168;2022-09-06T03:41:39;8.55;;;6.85;;
19436;SDS011;9854;50.968;4.168;2022-09-06T03:44:04;6.72;;;6.15;;
19436;SDS011;9854;50.968;4.168;2022-09-06T03:46:30;10.52;;;6.10;;
19436;SDS011;9854;50.968;4.168;2022-09-06T03:48:56;6.88;;;5.68;;
19436;SDS011;9854;50.968;4.168;2022-09-06T03:51:22;6.97;;;5.68;;
19436;SDS011;9854;50.968;4.168;2022-09-06T03:53:48;7.25;;;5.38;;
19436;SDS011;9854;50.968;4.168;2022-09-06T03:56:13;7.57;;;5.43;;
19436;SDS011;9854;50.968;4.168;2022-09-06T03:58:39;6.55;;;5.30;;
19436;SDS011;9854;50.968;4.168;2022-09-06T04:01:06;8.10;;;5.60;;
19436;SDS011;9854;50.968;4.168;2022-09-06T04:03:33;8.88;;;5.85;;
19436;SDS011;9854;50.968;4.168;2022-09-06T04:06:00;7.40;;;5.38;;
19436;SDS011;9854;50.968;4.168;2022-09-06T04:08:26;7.75;;;5.88;;
19436;SDS011;9854;50.968;4.168;2022-09-06T04:10:52;5.70;;;5.20;;
19436;SDS011;9854;50.968;4.168;2022-09-06T04:13:19;5.82;;;5.07;;
19436;SDS011;9854;50.968;4.168;2022-09-06T04:15:47;10.00;;;5.70;;
19436;SDS011;9854;50.968;4.168;2022-09-06T04:18:13;9.75;;;6.15;;
19436;SDS011;9854;50.968;4.168;2022-09-06T04:20:39;7.22;;;6.63;;
19436;SDS011;9854;50.968;4.168;2022-09-06T04:23:06;12.02;;;6.93;;
19436;SDS011;9854;50.968;4.168;2022-09-06T04:25:32;13.50;;;7.20;;
19436;SDS011;9854;50.968;4.168;2022-09-06T04:27:57;7.60;;;6.97;;
19436;SDS011;9854;50.968;4.168;2022-09-06T04:30:23;7.80;;;6.80;;
19436;SDS011;9854;50.968;4.168;2022-09-06T04:32:49;8.80;;;6.70;;
19436;SDS011;9854;50.968;4.168;2022-09-06T04:35:14;7.53;;;6.82;;
19436;SDS011;9854;50.968;4.168;2022-09-06T04:37:40;13.02;;;6.65;;
19436;SDS011;9854;50.968;4.168;2022-09-06T04:40:06;7.53;;;6.72;;
19436;SDS011;9854;50.968;4.168;2022-09-06T04:42:32;10.65;;;6.97;;
19436;SDS011;9854;50.968;4.168;2022-09-06T04:44:58;7.38;;;6.70;;
19436;SDS011;9854;50.968;4.168;2022-09-06T04:47:23;8.88;;;7.75;;
19436;SDS011;9854;50.968;4.168;2022-09-06T04:49:49;7.75;;;7.03;;
19436;SDS011;9854;50.968;4.168;2022-09-06T04:52:15;7.63;;;7.00;;
19436;SDS011;9854;50.968;4.168;2022-09-06T04:54:41;7.72;;;7.03;;
19436;SDS011;9854;50.968;4.168;2022-09-06T04:57:07;12.50;;;6.63;;
19436;SDS011;9854;50.968;4.168;2022-09-06T04:59:33;11.27;;;7.00;;
19436;SDS011;9854;50.968;4.168;2022-09-06T05:01:59;7.28;;;6.65;;
19436;SDS011;9854;50.968;4.168;2022-09-06T05:04:24;11.68;;;7.43;;
19436;SDS011;9854;50.968;4.168;2022-09-06T05:07:03;9.57;;;7.63;;
19436;SDS011;9854;50.968;4.168;2022-09-06T05:09:31;7.85;;;7.15;;
19436;SDS011;9854;50.968;4.168;2022-09-06T05:11:57;8.15;;;7.20;;
19436;SDS011;9854;50.968;4.168;2022-09-06T05:14:24;11.05;;;7.43;;
19436;SDS011;9854;50.968;4.168;2022-09-06T05:16:50;12.35;;;8.20;;
19436;SDS011;9854;50.968;4.168;2022-09-06T05:19:16;9.90;;;6.80;;
19436;SDS011;9854;50.968;4.168;2022-09-06T05:21:41;11.65;;;6.93;;
19436;SDS011;9854;50.968;4.168;2022-09-06T05:24:07;11.02;;;6.28;;
19436;SDS011;9854;50.968;4.168;2022-09-06T05:26:33;8.88;;;6.05;;
19436;SDS011;9854;50.968;4.168;2022-09-06T05:28:58;10.77;;;6.13;;
19436;SDS011;9854;50.968;4.168;2022-09-06T05:31:25;6.43;;;5.68;;
19436;SDS011;9854;50.968;4.168;2022-09-06T05:33:58;7.95;;;6.43;;
19436;SDS011;9854;50.968;4.168;2022-09-06T05:36:25;7.28;;;6.05;;
19436;SDS011;9854;50.968;4.168;2022-09-06T05:38:52;8.30;;;6.85;;
19436;SDS011;9854;50.968;4.168;2022-09-06T05:41:19;9.48;;;6.45;;
19436;SDS011;9854;50.968;4.168;2022-09-06T05:43:45;13.02;;;7.28;;
19436;SDS011;9854;50.968;4.168;2022-09-06T05:46:12;9.25;;;6.72;;
19436;SDS011;9854;50.968;4.168;2022-09-06T05:48:38;7.63;;;6.90;;
19436;SDS011;9854;50.968;4.168;2022-09-06T05:51:05;10.85;;;6.45;;
19436;SDS011;9854;50.968;4.168;2022-09-06T05:53:43;12.40;;;6.85;;
19436;SDS011;9854;50.968;4.168;2022-09-06T05:56:10;9.98;;;7.32;;
19436;SDS011;9854;50.968;4.168;2022-09-06T05:58:37;9.63;;;7.25;;
19436;SDS011;9854;50.968;4.168;2022-09-06T06:03:54;8.07;;;6.90;;
19436;SDS011;9854;50.968;4.168;2022-09-06T06:06:28;9.80;;;7.30;;
19436;SDS011;9854;50.968;4.168;2022-09-06T06:08:55;10.25;;;6.80;;
19436;SDS011;9854;50.968;4.168;2022-09-06T06:11:21;13.30;;;6.60;;
19436;SDS011;9854;50.968;4.168;2022-09-06T06:13:47;11.75;;;6.78;;
19436;SDS011;9854;50.968;4.168;2022-09-06T06:16:13;6.78;;;5.85;;
19436;SDS011;9854;50.968;4.168;2022-09-06T06:18:40;11.82;;;6.32;;
19436;SDS011;9854;50.968;4.168;2022-09-06T06:21:13;7.53;;;5.60;;
19436;SDS011;9854;50.968;4.168;2022-09-06T06:23:45;15.43;;;5.13;;
19436;SDS011;9854;50.968;4.168;2022-09-06T06:26:14;8.68;;;5.38;;
19436;SDS011;9854;50.968;4.168;2022-09-06T06:28:40;5.53;;;5.03;;
19436;SDS011;9854;50.968;4.168;2022-09-06T06:31:06;9.35;;;5.38;;
19436;SDS011;9854;50.968;4.168;2022-09-06T06:33:33;5.78;;;5.15;;
19436;SDS011;9854;50.968;4.168;2022-09-06T06:36:04;7.25;;;4.60;;
19436;SDS011;9854;50.968;4.168;2022-09-06T06:38:32;6.15;;;4.45;;
19436;SDS011;9854;50.968;4.168;2022-09-06T06:41:00;6.90;;;3.58;;
19436;SDS011;9854;50.968;4.168;2022-09-06T06:43:26;14.02;;;3.35;;
19436;SDS011;9854;50.968;4.168;2022-09-06T06:45:52;5.57;;;3.53;;
19436;SDS011;9854;50.968;4.168;2022-09-06T06:48:18;6.40;;;4.20;;
19436;SDS011;9854;50.968;4.168;2022-09-06T06:50:44;5.88;;;3.97;;
19436;SDS011;9854;50.968;4.168;2022-09-06T06:53:10;8.95;;;4.00;;
19436;SDS011;9854;50.968;4.168;2022-09-06T06:55:35;9.18;;;3.97;;
19436;SDS011;9854;50.968;4.168;2022-09-06T06:58:01;4.18;;;3.50;;
19436;SDS011;9854;50.968;4.168;2022-09-06T07:00:27;7.78;;;3.67;;
19436;SDS011;9854;50.968;4.168;2022-09-06T07:02:52;5.00;;;3.50;;
19436;SDS011;9854;50.968;4.168;2022-09-06T07:05:19;4.30;;;3.38;;
19436;SDS011;9854;50.968;4.168;2022-09-06T07:07:46;6.97;;;3.33;;
19436;SDS011;9854;50.968;4.168;2022-09-06T07:10:11;6.97;;;3.72;;
19436;SDS011;9854;50.968;4.168;2022-09-06T07:12:37;4.55;;;2.97;;
19436;SDS011;9854;50.968;4.168;2022-09-06T07:15:03;7.43;;;3.83;;
19436;SDS011;9854;50.968;4.168;2022-09-06T07:17:29;5.97;;;3.75;;
19436;SDS011;9854;50.968;4.168;2022-09-06T07:19:54;6.82;;;4.95;;
19436;SDS011;9854;50.968;4.168;2022-09-06T07:22:20;9.02;;;5.20;;
19436;SDS011;9854;50.968;4.168;2022-09-06T07:24:45;6.45;;;4.38;;
19436;SDS011;9854;50.968;4.168;2022-09-06T07:27:11;8.15;;;4.72;;
19436;SDS011;9854;50.968;4.168;2022-09-06T07:29:37;12.85;;;5.97;;
19436;SDS011;9854;50.968;4.168;2022-09-06T07:32:02;14.77;;;6.53;;
19436;SDS011;9854;50.968;4.168;2022-09-06T07:34:28;9.13;;;6.28;;
19436;SDS011;9854;50.968;4.168;2022-09-06T07:36:54;12.73;;;6.57;;
19436;SDS011;9854;50.968;4.168;2022-09-06T07:39:20;10.75;;;6.53;;
19436;SDS011;9854;50.968;4.168;2022-09-06T07:41:46;9.85;;;7.20;;
19436;SDS011;9854;50.968;4.168;2022-09-06T07:44:12;9.15;;;6.15;;
19436;SDS011;9854;50.968;4.168;2022-09-06T07:46:37;8.75;;;5.72;;
19436;SDS011;9854;50.968;4.168;2022-09-06T07:49:04;9.95;;;5.80;;
19436;SDS011;9854;50.968;4.168;2022-09-06T07:51:30;13.88;;;6.63;;
19436;SDS011;9854;50.968;4.168;2022-09-06T07:53:56;9.77;;;6.35;;
19436;SDS011;9854;50.968;4.168;2022-09-06T07:56:21;12.90;;;6.85;;
19436;SDS011;9854;50.968;4.168;2022-09-06T07:58:48;8.30;;;6.47;;
19436;SDS011;9854;50.968;4.168;2022-09-06T08:04:06;10.88;;;5.88;;
19436;SDS011;9854;50.968;4.168;2022-09-06T08:06:34;12.15;;;6.88;;
19436;SDS011;9854;50.968;4.168;2022-09-06T08:09:02;10.05;;;6.38;;
19436;SDS011;9854;50.968;4.168;2022-09-06T08:11:32;11.35;;;5.45;;
19436;SDS011;9854;50.968;4.168;2022-09-06T08:13:58;6.38;;;5.63;;
19436;SDS011;9854;50.968;4.168;2022-09-06T08:16:26;6.50;;;4.78;;
19436;SDS011;9854;50.968;4.168;2022-09-06T08:18:54;11.90;;;5.20;;
19436;SDS011;9854;50.968;4.168;2022-09-06T08:21:28;7.47;;;4.88;;
19436;SDS011;9854;50.968;4.168;2022-09-06T08:24:03;7.53;;;5.32;;
19436;SDS011;9854;50.968;4.168;2022-09-06T08:26:31;5.50;;;4.78;;
19436;SDS011;9854;50.968;4.168;2022-09-06T08:28:59;7.68;;;3.95;;
19436;SDS011;9854;50.968;4.168;2022-09-06T08:31:27;5.22;;;4.10;;
19436;SDS011;9854;50.968;4.168;2022-09-06T08:33:54;4.60;;;4.07;;
19436;SDS011;9854;50.968;4.168;2022-09-06T08:36:21;10.43;;;4.53;;
19436;SDS011;9854;50.968;4.168;2022-09-06T08:38:47;22.52;;;4.93;;
19436;SDS011;9854;50.968;4.168;2022-09-06T08:43:43;6.55;;;3.63;;
19436;SDS011;9854;50.968;4.168;2022-09-06T08:46:14;6.50;;;4.30;;
19436;SDS011;9854;50.968;4.168;2022-09-06T08:48:42;6.13;;;4.28;;
19436;SDS011;9854;50.968;4.168;2022-09-06T08:51:13;5.50;;;3.85;;
19436;SDS011;9854;50.968;4.168;2022-09-06T08:59:32;5.47;;;3.60;;
19436;SDS011;9854;50.968;4.168;2022-09-06T09:02:20;9.32;;;3.90;;
19436;SDS011;9854;50.968;4.168;2022-09-06T09:04:47;4.78;;;3.50;;
19436;SDS011;9854;50.968;4.168;2022-09-06T09:07:25;8.38;;;3.63;;
19436;SDS011;9854;50.968;4.168;2022-09-06T09:09:53;6.03;;;4.22;;
19436;SDS011;9854;50.968;4.168;2022-09-06T09:12:22;8.90;;;4.45;;
19436;SDS011;9854;50.968;4.168;2022-09-06T09:14:51;4.70;;;3.83;;
19436;SDS011;9854;50.968;4.168;2022-09-06T09:17:23;7.88;;;3.65;;
19436;SDS011;9854;50.968;4.168;2022-09-06T09:19:51;6.00;;;3.67;;
19436;SDS011;9854;50.968;4.168;2022-09-06T09:22:17;7.35;;;3.42;;
19436;SDS011;9854;50.968;4.168;2022-09-06T09:24:44;5.75;;;3.30;;
19436;SDS011;9854;50.968;4.168;2022-09-06T09:27:12;4.05;;;3.38;;
19436;SDS011;9854;50.968;4.168;2022-09-06T09:32:42;5.65;;;3.60;;
19436;SDS011;9854;50.968;4.168;2022-09-06T09:40:49;7.45;;;3.47;;
19436;SDS011;9854;50.968;4.168;2022-09-06T09:43:40;4.28;;;2.78;;
19436;SDS011;9854;50.968;4.168;2022-09-06T09:51:39;6.00;;;3.05;;
19436;SDS011;9854;50.968;4.168;2022-09-06T09:54:29;5.43;;;2.50;;
19436;SDS011;9854;50.968;4.168;2022-09-06T09:56:56;7.85;;;3.20;;
19436;SDS011;9854;50.968;4.168;2022-09-06T10:02:23;4.65;;;3.22;;
19436;SDS011;9854;50.968;4.168;2022-09-06T10:04:52;9.05;;;3.05;;
19436;SDS011;9854;50.968;4.168;2022-09-06T10:07:50;3.05;;;2.83;;
19436;SDS011;9854;50.968;4.168;2022-09-06T10:13:04;7.95;;;3.13;;
19436;SDS011;9854;50.968;4.168;2022-09-06T10:15:45;5.43;;;3.40;;
19436;SDS011;9854;50.968;4.168;2022-09-06T10:20:46;8.35;;;3.00;;
19436;SDS011;9854;50.968;4.168;2022-09-06T10:23:25;5.93;;;3.15;;
19436;SDS011;9854;50.968;4.168;2022-09-06T10:29:05;7.03;;;3.10;;
19436;SDS011;9854;50.968;4.168;2022-09-06T10:40:09;7.38;;;1.95;;
19436;SDS011;9854;50.968;4.168;2022-09-06T10:42:49;6.28;;;2.03;;
19436;SDS011;9854;50.968;4.168;2022-09-06T10:50:16;4.43;;;1.50;;
19436;SDS011;9854;50.968;4.168;2022-09-06T10:52:43;3.33;;;1.40;;
19436;SDS011;9854;50.968;4.168;2022-09-06T10:55:12;11.70;;;1.90;;
19436;SDS011;9854;50.968;4.168;2022-09-06T10:57:44;7.90;;;1.50;;
19436;SDS011;9854;50.968;4.168;2022-09-06T11:00:15;5.68;;;1.60;;
19436;SDS011;9854;50.968;4.168;2022-09-06T11:05:26;5.00;;;1.90;;
19436;SDS011;9854;50.968;4.168;2022-09-06T11:08:00;6.55;;;1.95;;
19436;SDS011;9854;50.968;4.168;2022-09-06T11:10:33;3.40;;;1.60;;
19436;SDS011;9854;50.968;4.168;2022-09-06T11:13:15;3.35;;;1.92;;
19436;SDS011;9854;50.968;4.168;2022-09-06T11:16:27;2.63;;;1.60;;
19436;SDS011;9854;50.968;4.168;2022-09-06T11:29:31;2.20;;;1.40;;
19436;SDS011;9854;50.968;4.168;2022-09-06T11:32:01;3.75;;;1.50;;
19436;SDS011;9854;50.968;4.168;2022-09-06T11:34:55;3.90;;;1.08;;
19436;SDS011;9854;50.968;4.168;2022-09-06T11:37:24;5.78;;;1.00;;
19436;SDS011;9854;50.968;4.168;2022-09-06T11:40:11;8.38;;;1.30;;
19436;SDS011;9854;50.968;4.168;2022-09-06T11:47:43;2.13;;;1.13;;
19436;SDS011;9854;50.968;4.168;2022-09-06T11:52:49;3.20;;;1.40;;
19436;SDS011;9854;50.968;4.168;2022-09-06T11:55:45;4.43;;;1.33;;
19436;SDS011;9854;50.968;4.168;2022-09-06T12:06:20;5.05;;;1.38;;
19436;SDS011;9854;50.968;4.168;2022-09-06T12:08:51;3.35;;;1.27;;
19436;SDS011;9854;50.968;4.168;2022-09-06T12:24:52;4.55;;;1.30;;
19436;SDS011;9854;50.968;4.168;2022-09-06T12:27:19;5.38;;;1.38;;
19436;SDS011;9854;50.968;4.168;2022-09-06T12:29:55;5.50;;;1.30;;
19436;SDS011;9854;50.968;4.168;2022-09-06T12:32:33;5.78;;;1.23;;
19436;SDS011;9854;50.968;4.168;2022-09-06T12:37:52;3.88;;;1.67;;
19436;SDS011;9854;50.968;4.168;2022-09-06T12:40:20;8.45;;;1.23;;
19436;SDS011;9854;50.968;4.168;2022-09-06T12:42:48;9.07;;;1.70;;
19436;SDS011;9854;50.968;4.168;2022-09-06T12:45:15;3.72;;;1.60;;
19436;SDS011;9854;50.968;4.168;2022-09-06T12:47:42;4.13;;;1.67;;
19436;SDS011;9854;50.968;4.168;2022-09-06T12:50:16;4.15;;;1.63;;
19436;SDS011;9854;50.968;4.168;2022-09-06T12:55:16;1.92;;;1.13;;
19436;SDS011;9854;50.968;4.168;2022-09-06T12:57:53;4.47;;;1.27;;
19436;SDS011;9854;50.968;4.168;2022-09-06T13:00:22;5.13;;;1.13;;
19436;SDS011;9854;50.968;4.168;2022-09-06T13:05:29;4.82;;;1.10;;
19436;SDS011;9854;50.968;4.168;2022-09-06T13:07:57;9.32;;;1.10;;
19436;SDS011;9854;50.968;4.168;2022-09-06T13:10:27;3.97;;;1.20;;
19436;SDS011;9854;50.968;4.168;2022-09-06T13:12:54;4.40;;;1.42;;
19436;SDS011;9854;50.968;4.168;2022-09-06T13:15:23;3.83;;;1.50;;
19436;SDS011;9854;50.968;4.168;2022-09-06T13:17:54;8.35;;;1.58;;
19436;SDS011;9854;50.968;4.168;2022-09-06T13:20:40;6.72;;;1.40;;
19436;SDS011;9854;50.968;4.168;2022-09-06T13:23:10;4.30;;;1.60;;
19436;SDS011;9854;50.968;4.168;2022-09-06T13:25:47;3.90;;;1.35;;
19436;SDS011;9854;50.968;4.168;2022-09-06T13:33:37;4.15;;;1.25;;
19436;SDS011;9854;50.968;4.168;2022-09-06T13:38:51;3.85;;;0.98;;
19436;SDS011;9854;50.968;4.168;2022-09-06T13:43:56;3.05;;;0.85;;
19436;SDS011;9854;50.968;4.168;2022-09-06T13:46:23;1.88;;;1.00;;
19436;SDS011;9854;50.968;4.168;2022-09-06T13:48:52;5.18;;;1.00;;
19436;SDS011;9854;50.968;4.168;2022-09-06T13:51:18;3.08;;;1.00;;
19436;SDS011;9854;50.968;4.168;2022-09-06T13:53:43;3.25;;;0.85;;
19436;SDS011;9854;50.968;4.168;2022-09-06T13:56:09;6.35;;;1.20;;
19436;SDS011;9854;50.968;4.168;2022-09-06T13:58:36;4.80;;;1.25;;
19436;SDS011;9854;50.968;4.168;2022-09-06T14:01:02;6.53;;;1.27;;
19436;SDS011;9854;50.968;4.168;2022-09-06T14:03:32;5.07;;;1.33;;
19436;SDS011;9854;50.968;4.168;2022-09-06T14:05:59;3.22;;;1.20;;
19436;SDS011;9854;50.968;4.168;2022-09-06T14:08:25;8.85;;;1.00;;
19436;SDS011;9854;50.968;4.168;2022-09-06T14:10:54;3.30;;;0.90;;
19436;SDS011;9854;50.968;4.168;2022-09-06T14:13:20;4.35;;;1.42;;
19436;SDS011;9854;50.968;4.168;2022-09-06T14:15:46;9.13;;;1.23;;
19436;SDS011;9854;50.968;4.168;2022-09-06T14:18:13;1.80;;;1.10;;
19436;SDS011;9854;50.968;4.168;2022-09-06T14:20:39;3.33;;;1.13;;
19436;SDS011;9854;50.968;4.168;2022-09-06T14:23:06;4.97;;;1.20;;
19436;SDS011;9854;50.968;4.168;2022-09-06T14:25:35;5.72;;;1.30;;
19436;SDS011;9854;50.968;4.168;2022-09-06T14:28:02;3.40;;;1.10;;
19436;SDS011;9854;50.968;4.168;2022-09-06T14:30:28;2.80;;;0.80;;
19436;SDS011;9854;50.968;4.168;2022-09-06T14:32:54;2.55;;;1.30;;
19436;SDS011;9854;50.968;4.168;2022-09-06T14:35:19;2.78;;;0.95;;
19436;SDS011;9854;50.968;4.168;2022-09-06T14:37:45;5.45;;;1.02;;
19436;SDS011;9854;50.968;4.168;2022-09-06T14:40:11;4.07;;;1.50;;
19436;SDS011;9854;50.968;4.168;2022-09-06T14:42:36;6.72;;;1.40;;
19436;SDS011;9854;50.968;4.168;2022-09-06T14:45:02;7.75;;;1.00;;
19436;SDS011;9854;50.968;4.168;2022-09-06T14:47:28;2.30;;;1.08;;
19436;SDS011;9854;50.968;4.168;2022-09-06T14:49:55;2.45;;;1.00;;
19436;SDS011;9854;50.968;4.168;2022-09-06T14:52:21;7.97;;;1.40;;
19436;SDS011;9854;50.968;4.168;2022-09-06T14:54:47;2.42;;;1.10;;
19436;SDS011;9854;50.968;4.168;2022-09-06T14:57:13;5.22;;;1.40;;
19436;SDS011;9854;50.968;4.168;2022-09-06T14:59:39;3.83;;;1.10;;
19436;SDS011;9854;50.968;4.168;2022-09-06T15:02:05;2.85;;;1.10;;
19436;SDS011;9854;50.968;4.168;2022-09-06T15:04:31;2.72;;;1.48;;
19436;SDS011;9854;50.968;4.168;2022-09-06T15:06:57;6.15;;;1.50;;
19436;SDS011;9854;50.968;4.168;2022-09-06T15:09:24;4.97;;;1.02;;
19436;SDS011;9854;50.968;4.168;2022-09-06T15:11:50;2.40;;;0.90;;
19436;SDS011;9854;50.968;4.168;2022-09-06T15:14:22;2.13;;;1.10;;
19436;SDS011;9854;50.968;4.168;2022-09-06T15:16:49;7.28;;;1.30;;
19436;SDS011;9854;50.968;4.168;2022-09-06T15:19:16;10.15;;;1.27;;
19436;SDS011;9854;50.968;4.168;2022-09-06T15:21:43;10.20;;;1.08;;
19436;SDS011;9854;50.968;4.168;2022-09-06T15:24:10;3.65;;;1.30;;
19436;SDS011;9854;50.968;4.168;2022-09-06T15:26:36;3.13;;;1.05;;
19436;SDS011;9854;50.968;4.168;2022-09-06T15:29:02;4.25;;;1.30;;
19436;SDS011;9854;50.968;4.168;2022-09-06T15:31:28;4.28;;;1.20;;
19436;SDS011;9854;50.968;4.168;2022-09-06T15:33:54;2.00;;;1.02;;
19436;SDS011;9854;50.968;4.168;2022-09-06T15:36:20;4.45;;;1.50;;
19436;SDS011;9854;50.968;4.168;2022-09-06T15:38:46;4.07;;;1.20;;
19436;SDS011;9854;50.968;4.168;2022-09-06T15:41:14;3.67;;;1.27;;
19436;SDS011;9854;50.968;4.168;2022-09-06T15:43:54;5.28;;;1.33;;
19436;SDS011;9854;50.968;4.168;2022-09-06T15:49:15;7.85;;;1.50;;
19436;SDS011;9854;50.968;4.168;2022-09-06T15:51:45;5.25;;;1.02;;
19436;SDS011;9854;50.968;4.168;2022-09-06T15:54:11;4.75;;;1.15;;
19436;SDS011;9854;50.968;4.168;2022-09-06T15:56:38;3.10;;;1.20;;
19436;SDS011;9854;50.968;4.168;2022-09-06T15:59:05;6.68;;;1.27;;
19436;SDS011;9854;50.968;4.168;2022-09-06T16:01:31;6.68;;;1.13;;
19436;SDS011;9854;50.968;4.168;2022-09-06T16:03:58;6.10;;;1.30;;
19436;SDS011;9854;50.968;4.168;2022-09-06T16:06:28;3.78;;;1.50;;
19436;SDS011;9854;50.968;4.168;2022-09-06T16:08:56;6.90;;;1.45;;
19436;SDS011;9854;50.968;4.168;2022-09-06T16:11:24;4.85;;;1.00;;
19436;SDS011;9854;50.968;4.168;2022-09-06T16:13:50;1.95;;;1.00;;
19436;SDS011;9854;50.968;4.168;2022-09-06T16:16:17;5.25;;;1.33;;
19436;SDS011;9854;50.968;4.168;2022-09-06T16:18:44;2.55;;;1.00;;
19436;SDS011;9854;50.968;4.168;2022-09-06T16:21:14;2.92;;;1.08;;
19436;SDS011;9854;50.968;4.168;2022-09-06T16:23:47;4.85;;;1.17;;
19436;SDS011;9854;50.968;4.168;2022-09-06T16:26:18;8.07;;;1.40;;
19436;SDS011;9854;50.968;4.168;2022-09-06T16:28:46;2.72;;;1.10;;
19436;SDS011;9854;50.968;4.168;2022-09-06T16:31:13;3.30;;;1.00;;
19436;SDS011;9854;50.968;4.168;2022-09-06T16:33:39;4.53;;;1.13;;
19436;SDS011;9854;50.968;4.168;2022-09-06T16:36:07;4.53;;;1.10;;
19436;SDS011;9854;50.968;4.168;2022-09-06T16:38:36;4.93;;;1.30;;
19436;SDS011;9854;50.968;4.168;2022-09-06T16:41:07;3.50;;;0.90;;
19436;SDS011;9854;50.968;4.168;2022-09-06T16:43:38;3.25;;;1.13;;
19436;SDS011;9854;50.968;4.168;2022-09-06T16:46:04;4.93;;;1.30;;
19436;SDS011;9854;50.968;4.168;2022-09-06T16:48:30;6.55;;;1.08;;
19436;SDS011;9854;50.968;4.168;2022-09-06T16:50:56;3.80;;;1.20;;
19436;SDS011;9854;50.968;4.168;2022-09-06T16:53:22;6.65;;;1.35;;
19436;SDS011;9854;50.968;4.168;2022-09-06T16:55:48;5.47;;;1.20;;
19436;SDS011;9854;50.968;4.168;2022-09-06T16:58:15;1.10;;;0.75;;
19436;SDS011;9854;50.968;4.168;2022-09-06T17:00:41;2.70;;;1.15;;
19436;SDS011;9854;50.968;4.168;2022-09-06T17:03:11;3.15;;;1.08;;
19436;SDS011;9854;50.968;4.168;2022-09-06T17:05:38;11.55;;;1.40;;
19436;SDS011;9854;50.968;4.168;2022-09-06T17:08:04;3.42;;;1.45;;
19436;SDS011;9854;50.968;4.168;2022-09-06T17:10:30;4.18;;;1.33;;
19436;SDS011;9854;50.968;4.168;2022-09-06T17:12:55;3.53;;;1.20;;
19436;SDS011;9854;50.968;4.168;2022-09-06T17:15:21;2.85;;;1.15;;
19436;SDS011;9854;50.968;4.168;2022-09-06T17:17:47;2.33;;;1.13;;
19436;SDS011;9854;50.968;4.168;2022-09-06T17:20:13;3.45;;;1.48;;
19436;SDS011;9854;50.968;4.168;2022-09-06T17:22:42;1.92;;;1.25;;
19436;SDS011;9854;50.968;4.168;2022-09-06T17:25:08;2.97;;;1.33;;
19436;SDS011;9854;50.968;4.168;2022-09-06T17:27:35;2.97;;;1.15;;
19436;SDS011;9854;50.968;4.168;2022-09-06T17:30:01;3.95;;;1.33;;
19436;SDS011;9854;50.968;4.168;2022-09-06T17:32:28;6.43;;;1.20;;
19436;SDS011;9854;50.968;4.168;2022-09-06T17:34:53;4.60;;;1.50;;
19436;SDS011;9854;50.968;4.168;2022-09-06T17:37:19;5.20;;;1.58;;
19436;SDS011;9854;50.968;4.168;2022-09-06T17:39:44;6.30;;;1.52;;